Time;durP1;ratioP1;P1;durP2;ratioP2;P2;SDS_P1;SDS_P2;PMS_P1;PMS_P2;Temp;Humidity;BMP_temperature;BMP_pressure;BME280_temperature;BME280_humidity;BME280_pressure;Samples;Min_cycle;Max_cycle;Signal;HPM_P1;HPM_P2
2022/01/05 00:00:08;;;;;;;16.02;3.20;;;;;;;;;;4965753;28;20599;-89
2022/01/05 00:02:35;;;;;;;15.95;3.25;;;;;;;;;;4972593;28;20093;-89
2022/01/05 00:05:03;;;;;;;20.67;3.38;;;;;;;;;;4974196;28;20093;-89
2022/01/05 00:07:30;;;;;;;21.83;3.72;;;;;;;;;;4974220;28;20043;-89
2022/01/05 00:09:58;;;;;;;17.73;2.60;;;;;;;;;;4956940;28;20158;-88
2022/01/05 00:12:26;;;;;;;28.83;3.08;;;;;;;;;;4956567;28;20097;-88
2022/01/05 00:14:53;;;;;;;14.05;2.65;;;;;;;;;;4956859;28;20051;-89
2022/01/05 00:17:20;;;;;;;19.55;3.08;;;;;;;;;;4957502;28;20134;-88
2022/01/05 00:19:47;;;;;;;20.58;2.83;;;;;;;;;;4973001;28;20133;-89
2022/01/05 00:22:14;;;;;;;19.48;2.58;;;;;;;;;;4973190;28;20082;-89
2022/01/05 00:24:43;;;;;;;18.77;3.15;;;;;;;;;;4973279;28;20089;-89
2022/01/05 00:27:10;;;;;;;21.80;3.65;;;;;;;;;;4961732;28;20074;-89
2022/01/05 00:29:37;;;;;;;13.43;3.22;;;;;;;;;;4953725;29;20078;-89
2022/01/05 00:32:05;;;;;;;16.55;3.08;;;;;;;;;;4969206;28;20047;-89
2022/01/05 00:41:43;;;;;;;12.93;2.58;;;;;;;;;;4974013;28;20481;-89
2022/01/05 00:47:33;;;;;;;19.77;3.50;;;;;;;;;;4973537;28;20066;-88
2022/01/05 00:50:00;;;;;;;19.38;4.03;;;;;;;;;;4973828;28;20074;-88
2022/01/05 00:52:27;;;;;;;24.88;3.30;;;2.60;99.90;;;;;;4956594;28;20475;-89
2022/01/05 00:54:54;;;;;;;16.08;3.05;;;2.50;99.90;;;;;;4956940;28;20054;-88
2022/01/05 00:57:21;;;;;;;21.85;3.05;;;2.50;99.90;;;;;;4955185;28;20157;-89
2022/01/05 00:59:48;;;;;;;16.15;3.97;;;2.60;99.90;;;;;;4956549;28;20467;-88
2022/01/05 01:02:15;;;;;;;13.30;2.65;;;3.10;99.90;;;;;;4959174;28;20064;-88
2022/01/05 01:04:42;;;;;;;15.57;3.30;;;3.00;99.90;;;;;;4958904;28;20141;-89
2022/01/05 01:07:09;;;;;;;13.48;3.45;;;2.70;99.90;;;;;;4959124;28;20055;-88
2022/01/05 01:09:36;;;;;;;19.10;3.25;;;2.50;99.90;;;;;;4959682;28;20059;-89
2022/01/05 01:12:07;;;;;;;13.75;3.15;;;2.50;99.90;;;;;;4959802;28;20571;-90
2022/01/05 01:14:34;;;;;;;27.92;4.35;;;2.60;99.90;;;;;;4977043;28;20125;-89
2022/01/05 01:17:01;;;;;;;24.83;3.33;;;2.60;99.90;;;;;;4959695;28;20109;-88
2022/01/05 01:19:28;;;;;;;16.13;3.38;;;2.50;99.90;;;;;;4959408;28;20134;-88
2022/01/05 01:21:55;;;;;;;18.75;3.92;;;2.70;99.90;;;;;;4958716;28;20141;-87
2022/01/05 01:24:22;;;;;;;10.43;3.25;;;2.50;99.90;;;;;;4975811;28;20058;-87
2022/01/05 01:26:49;;;;;;;22.02;3.67;;;2.50;99.90;;;;;;4976084;28;20137;-87
2022/01/05 01:29:15;;;;;;;18.13;3.40;;;2.40;99.90;;;;;;4958665;28;20094;-87
2022/01/05 01:31:42;;;;;;;25.58;4.50;;;2.50;99.90;;;;;;4957934;28;20047;-87
2022/01/05 01:34:09;;;;;;;24.70;4.53;;;2.50;99.90;;;;;;4957655;28;20097;-87
2022/01/05 01:36:46;;;;;;;29.88;5.35;;;2.40;99.90;;;;;;4946496;28;20075;-88
2022/01/05 01:39:13;;;;;;;23.05;4.70;;;2.50;99.90;;;;;;4959073;28;20047;-88
2022/01/05 01:41:40;;;;;;;23.30;4.70;;;2.50;99.90;;;;;;4959450;28;20051;-89
2022/01/05 01:44:07;;;;;;;31.67;4.22;;;2.40;99.90;;;;;;4959013;28;20751;-88
2022/01/05 01:46:34;;;;;;;18.38;4.32;;;2.50;99.90;;;;;;4958925;28;20440;-88
2022/01/05 01:49:01;;;;;;;13.52;4.07;;;2.40;99.90;;;;;;4958690;28;20050;-87
2022/01/05 01:51:28;;;;;;;28.80;4.70;;;2.60;99.90;;;;;;4958010;28;20153;-88
2022/01/05 01:53:54;;;;;;;22.73;4.85;;;2.50;99.90;;;;;;4957724;28;20070;-88
2022/01/05 01:56:24;;;;;;;17.65;4.63;;;2.50;99.90;;;;;;4956625;28;20047;-87
2022/01/05 01:58:51;;;;;;;18.10;4.50;;;2.50;99.90;;;;;;4973410;28;20110;-87
2022/01/05 02:01:18;;;;;;;19.92;6.28;;;2.50;99.90;;;;;;4955356;28;20424;-86
2022/01/05 02:03:45;;;;;;;20.95;5.00;;;2.40;99.90;;;;;;4955802;28;20055;-86
2022/01/05 02:06:18;;;;;;;25.48;5.20;;;2.40;99.90;;;;;;4955018;28;20472;-86
2022/01/05 02:08:45;;;;;;;20.90;5.15;;;2.40;99.90;;;;;;4972798;28;20126;-86
2022/01/05 02:11:13;;;;;;;24.33;5.72;;;2.30;99.90;;;;;;4955439;28;20081;-86
2022/01/05 02:13:41;;;;;;;21.15;5.70;;;2.30;99.90;;;;;;4955641;28;20081;-86
2022/01/05 02:16:08;;;;;;;23.15;4.72;;;2.60;99.90;;;;;;4972773;28;20086;-86
2022/01/05 02:21:12;;;;;;;29.10;5.72;;;2.30;99.90;;;;;;4971677;28;20109;-86
2022/01/05 02:23:39;;;;;;;23.55;5.13;;;2.20;99.90;;;;;;4955223;28;20129;-86
2022/01/05 02:26:07;;;;;;;26.17;5.78;;;2.30;99.90;;;;;;4955313;28;20062;-86
2022/01/05 02:28:34;;;;;;;35.72;5.93;;;2.20;99.90;;;;;;4955214;28;20059;-85
2022/01/05 02:31:03;;;;;;;25.27;5.05;;;2.10;99.90;;;;;;4953993;28;20065;-86
2022/01/05 02:33:34;;;;;;;22.38;5.40;;;2.30;99.90;;;;;;4952907;28;20062;-85
2022/01/05 02:36:00;;;;;;;16.92;5.13;;;2.40;99.90;;;;;;4955699;28;20054;-86
2022/01/05 02:38:27;;;;;;;22.48;5.60;;;2.30;99.90;;;;;;4955750;28;20082;-85
2022/01/05 02:40:54;;;;;;;22.30;6.20;;;2.40;99.90;;;;;;4955483;28;20150;-85
2022/01/05 02:43:21;;;;;;;18.13;6.35;;;2.30;99.90;;;;;;4955156;28;20142;-86
2022/01/05 02:45:48;;;;;;;30.50;5.93;;;2.40;99.90;;;;;;4955010;28;20051;-86
2022/01/05 02:48:15;;;;;;;23.15;5.30;;;2.40;99.90;;;;;;4970975;28;20047;-85
2022/01/05 02:50:42;;;;;;;21.60;5.43;;;2.40;99.90;;;;;;4953854;28;20145;-85
2022/01/05 02:53:09;;;;;;;22.25;5.22;;;2.40;99.90;;;;;;4954692;28;20078;-85
2022/01/05 02:55:36;;;;;;;26.48;4.35;;;2.30;99.90;;;;;;4954661;28;20086;-86
2022/01/05 02:58:03;;;;;;;31.38;6.07;;;2.50;99.90;;;;;;4972417;28;20047;-85
2022/01/05 03:00:30;;;;;;;16.55;5.13;;;2.40;99.90;;;;;;4955409;28;20625;-85
2022/01/05 03:02:57;;;;;;;29.42;4.50;;;2.40;99.90;;;;;;4955276;28;20105;-86
2022/01/05 03:05:24;;;;;;;25.13;5.32;;;2.30;99.90;;;;;;4955058;28;20065;-86
2022/01/05 03:07:50;;;;;;;28.83;5.38;;;2.30;99.90;;;;;;4972839;28;20145;-87
2022/01/05 03:10:18;;;;;;;25.20;5.18;;;2.30;99.90;;;;;;4954458;28;20078;-86
2022/01/05 03:12:45;;;;;;;16.52;4.55;;;2.40;99.90;;;;;;4955156;28;20074;-86
2022/01/05 03:15:12;;;;;;;20.30;3.88;;;2.40;99.90;;;;;;4954788;28;20137;-86
2022/01/05 03:17:40;;;;;;;23.52;4.72;;;2.30;99.90;;;;;;4957346;28;20137;-86
2022/01/05 03:20:08;;;;;;;19.38;5.00;;;2.40;99.90;;;;;;4974699;28;20059;-87
2022/01/05 03:22:35;;;;;;;20.77;4.88;;;2.40;99.90;;;;;;4961204;28;20082;-87
2022/01/05 03:25:04;;;;;;;24.38;4.57;;;2.40;99.90;;;;;;4979052;28;20080;-86
2022/01/05 03:27:38;;;;;;;19.90;4.32;;;2.40;99.90;;;;;;4980783;28;20051;-86
2022/01/05 03:30:06;;;;;;;28.25;4.78;;;2.00;99.90;;;;;;4986052;28;20050;-87
2022/01/05 03:32:44;;;;;;;24.55;5.10;;;2.30;99.90;;;;;;4987106;28;20704;-87
2022/01/05 03:35:11;;;;;;;21.02;4.50;;;2.30;99.90;;;;;;4960467;28;20070;-88
2022/01/05 03:37:38;;;;;;;17.75;4.43;;;2.10;99.90;;;;;;4957355;28;20475;-87
2022/01/05 03:40:05;;;;;;;20.13;4.05;;;2.10;99.90;;;;;;4957810;28;20138;-87
2022/01/05 03:42:32;;;;;;;30.73;5.00;;;2.20;99.90;;;;;;4957159;28;20082;-88
2022/01/05 03:44:59;;;;;;;27.00;4.82;;;2.20;99.90;;;;;;4956352;28;20508;-87
2022/01/05 03:47:26;;;;;;;17.65;4.50;;;2.00;99.90;;;;;;4954619;28;20070;-87
2022/01/05 03:49:52;;;;;;;21.67;4.50;;;2.10;99.90;;;;;;4970743;28;20091;-88
2022/01/05 03:52:19;;;;;;;29.67;4.90;;;2.20;99.90;;;;;;4953840;28;20083;-87
2022/01/05 03:54:46;;;;;;;24.10;4.68;;;2.20;99.90;;;;;;4970913;28;20782;-88
2022/01/05 03:57:13;;;;;;;21.33;4.68;;;2.60;99.90;;;;;;4952835;28;20516;-87
2022/01/05 03:59:39;;;;;;;27.55;4.35;;;2.20;99.90;;;;;;4954160;28;20121;-88
2022/01/05 04:02:06;;;;;;;18.35;4.22;;;2.30;99.90;;;;;;4951636;28;20082;-87
2022/01/05 04:04:33;;;;;;;16.60;4.85;;;2.30;99.90;;;;;;4953429;28;20112;-87
2022/01/05 04:07:00;;;;;;;17.92;3.50;;;2.30;99.90;;;;;;4968082;28;20167;-87
2022/01/05 04:09:27;;;;;;;28.15;4.50;;;2.30;99.90;;;;;;4951603;28;20061;-86
2022/01/05 04:11:53;;;;;;;28.05;4.85;;;2.40;99.90;;;;;;4950601;28;20078;-87
2022/01/05 04:14:20;;;;;;;19.95;4.07;;;2.30;99.90;;;;;;4952568;28;20047;-86
2022/01/05 04:16:53;;;;;;;15.73;3.90;;;2.50;99.90;;;;;;4954467;28;20078;-87
2022/01/05 04:19:20;;;;;;;17.35;4.45;;;2.40;99.90;;;;;;4954403;28;20058;-87
2022/01/05 04:21:47;;;;;;;18.27;3.67;;;2.40;99.90;;;;;;4955390;28;20070;-87
2022/01/05 04:24:14;;;;;;;19.10;3.20;;;2.90;99.90;;;;;;4954400;28;20150;-88
2022/01/05 04:26:40;;;;;;;17.40;3.85;;;2.30;99.90;;;;;;4958006;28;20114;-88
2022/01/05 04:29:07;;;;;;;27.17;3.63;;;2.20;99.90;;;;;;4954749;28;20085;-87
2022/01/05 04:31:34;;;;;;;20.15;4.20;;;2.30;99.90;;;;;;4954683;28;20081;-87
2022/01/05 04:34:06;;;;;;;25.67;3.58;;;2.40;99.90;;;;;;4953556;28;20053;-86
2022/01/05 04:36:53;;;;;;;21.30;3.38;;;2.40;99.90;;;;;;4961466;28;20068;-87
2022/01/05 04:39:19;;;;;;;22.27;3.20;;;2.30;99.90;;;;;;4959655;28;20074;-87
2022/01/05 04:41:46;;;;;;;24.05;3.30;;;2.20;99.90;;;;;;4976863;28;20083;-87
2022/01/05 04:44:13;;;;;;;18.85;3.15;;;2.20;99.90;;;;;;4975026;28;20086;-87
2022/01/05 04:46:40;;;;;;;24.95;3.67;;;2.10;99.90;;;;;;4958036;28;20105;-87
2022/01/05 04:49:07;;;;;;;21.90;3.47;;;2.60;99.90;;;;;;4956854;28;20062;-88
2022/01/05 04:51:33;;;;;;;20.40;3.65;;;2.20;99.90;;;;;;4975785;28;20093;-87
2022/01/05 04:54:08;;;;;;;33.90;3.45;;;2.10;99.90;;;;;;4957546;28;20432;-88
2022/01/05 04:56:34;;;;;;;8.63;2.72;;;2.10;99.90;;;;;;4958020;28;20126;-87
2022/01/05 04:59:02;;;;;;;19.83;3.53;;;2.10;99.90;;;;;;4958065;28;20141;-88
2022/01/05 05:01:29;;;;;;;24.65;4.30;;;2.10;99.90;;;;;;4958192;28;20129;-87
2022/01/05 05:04:11;;;;;;;21.35;3.08;;;2.20;99.90;;;;;;4957528;28;20381;-87
2022/01/05 05:06:38;;;;;;;18.77;3.22;;;2.10;99.90;;;;;;4952006;28;20356;-88
2022/01/05 05:09:05;;;;;;;20.83;3.53;;;2.20;99.90;;;;;;4975740;28;20054;-86
2022/01/05 05:11:32;;;;;;;14.07;2.85;;;2.20;99.90;;;;;;4957897;28;20486;-87
2022/01/05 05:13:58;;;;;;;27.73;4.30;;;2.20;99.90;;;;;;4958256;28;20050;-89
2022/01/05 05:16:25;;;;;;;13.15;3.78;;;2.20;99.90;;;;;;4958422;28;20149;-88
2022/01/05 05:18:52;;;;;;;20.63;3.42;;;2.30;99.90;;;;;;4957787;28;20615;-89
2022/01/05 05:21:19;;;;;;;27.65;3.80;;;2.10;99.90;;;;;;4958739;28;20097;-89
2022/01/05 05:23:46;;;;;;;15.75;3.17;;;2.20;99.90;;;;;;4975155;28;20086;-90
2022/01/05 05:26:12;;;;;;;23.85;3.65;;;2.20;99.90;;;;;;4976018;28;20526;-89
2022/01/05 05:28:39;;;;;;;20.40;4.40;;;2.20;99.90;;;;;;4958184;28;20567;-88
2022/01/05 05:31:07;;;;;;;15.25;3.13;;;2.30;99.90;;;;;;4957914;28;20134;-89
2022/01/05 05:33:34;;;;;;;30.88;4.60;;;2.20;99.90;;;;;;4958507;28;20131;-89
2022/01/05 05:36:02;;;;;;;17.20;3.40;;;2.40;99.90;;;;;;4958744;28;20082;-88
2022/01/05 05:38:29;;;;;;;30.70;3.95;;;2.30;99.90;;;;;;4958437;28;20125;-90
2022/01/05 05:40:56;;;;;;;16.45;2.72;;;2.30;99.90;;;;;;4968648;28;20094;-90
2022/01/05 05:43:23;;;;;;;16.10;2.90;;;2.50;99.90;;;;;;4970963;28;20443;-89
2022/01/05 05:45:50;;;;;;;33.20;3.53;;;2.40;99.90;;;;;;4977386;28;20050;-88
2022/01/05 05:48:17;;;;;;;10.77;3.10;;;2.50;99.90;;;;;;4964349;28;20054;-87
2022/01/05 05:50:43;;;;;;;22.02;4.00;;;2.50;99.90;;;;;;4963019;28;20074;-88
2022/01/05 05:53:10;;;;;;;35.35;3.50;;;2.50;99.90;;;;;;4993564;28;20120;-89
2022/01/05 05:55:38;;;;;;;17.23;2.78;;;2.50;99.90;;;;;;4981736;28;20520;-88
2022/01/05 05:58:05;;;;;;;20.80;3.33;;;2.70;99.90;;;;;;4957648;28;20141;-89
2022/01/05 06:00:31;;;;;;;25.75;3.40;;;2.30;99.90;;;;;;4957442;28;20042;-88
2022/01/05 06:03:00;;;;;;;16.63;2.95;;;2.50;99.90;;;;;;4955699;28;20412;-88
2022/01/05 06:05:27;;;;;;;15.45;2.70;;;2.60;99.90;;;;;;4986025;28;20058;-87
2022/01/05 06:07:54;;;;;;;18.85;2.80;;;2.60;99.90;;;;;;4973329;28;20384;-89
2022/01/05 06:10:21;;;;;;;20.67;2.90;;;2.50;99.90;;;;;;4963878;28;20050;-88
2022/01/05 06:12:47;;;;;;;18.55;3.10;;;2.70;99.90;;;;;;4969070;28;20073;-88
2022/01/05 06:15:15;;;;;;;16.70;3.10;;;2.60;99.90;;;;;;4959606;28;20078;-88
2022/01/05 06:17:41;;;;;;;13.00;1.83;;;2.50;99.90;;;;;;4961692;28;20121;-88
2022/01/05 06:20:10;;;;;;;15.77;2.17;;;2.60;99.90;;;;;;4960262;28;20139;-87
2022/01/05 06:22:41;;;;;;;14.25;2.42;;;2.50;99.90;;;;;;4957556;28;20132;-87
2022/01/05 06:25:09;;;;;;;19.45;2.83;;;2.60;99.90;;;;;;4958399;28;20055;-87
2022/01/05 06:27:37;;;;;;;15.77;3.95;;;2.70;99.90;;;;;;4961137;28;20078;-87
2022/01/05 06:30:06;;;;;;;21.65;3.08;;;2.60;99.90;;;;;;4954090;28;20452;-89
2022/01/05 06:32:34;;;;;;;12.18;2.00;;;2.90;99.90;;;;;;4968476;28;20154;-88
2022/01/05 06:35:03;;;;;;;17.13;3.38;;;2.90;99.90;;;;;;4953839;28;20122;-89
2022/01/05 06:37:30;;;;;;;19.65;2.80;;;3.10;99.90;;;;;;4956637;28;20097;-90
2022/01/05 06:40:00;;;;;;;31.77;3.53;;;3.00;99.90;;;;;;4958731;28;20137;-89
2022/01/05 06:42:27;;;;;;;9.70;2.53;;;3.00;99.90;;;;;;4949558;28;20058;-87
2022/01/05 06:44:53;;;;;;;39.00;4.07;;;3.10;99.90;;;;;;4964206;28;20057;-87
2022/01/05 06:47:20;;;;;;;21.80;3.45;;;3.00;99.90;;;;;;4978815;28;20065;-87
2022/01/05 06:49:47;;;;;;;16.48;2.88;;;3.10;99.90;;;;;;4952839;28;20089;-88
2022/01/05 06:52:14;;;;;;;19.83;2.95;;;3.10;99.90;;;;;;4969654;28;20137;-86
2022/01/05 06:54:41;;;;;;;25.65;2.55;;;3.10;99.90;;;;;;4952376;28;20142;-87
2022/01/05 06:57:09;;;;;;;17.98;2.33;;;3.10;99.90;;;;;;4959427;28;20054;-87
2022/01/05 06:59:36;;;;;;;22.55;2.90;;;3.30;99.90;;;;;;4952758;28;20082;-87
2022/01/05 07:02:03;;;;;;;22.80;2.20;;;3.30;99.90;;;;;;4952580;28;20057;-86
2022/01/05 07:04:30;;;;;;;13.68;2.42;;;3.50;99.90;;;;;;4969245;28;20141;-87
2022/01/05 07:06:58;;;;;;;18.88;4.40;;;3.50;99.90;;;;;;4974221;28;20149;-86
2022/01/05 07:09:25;;;;;;;13.57;2.72;;;3.40;99.90;;;;;;4952062;28;20117;-87
2022/01/05 07:11:52;;;;;;;14.90;3.03;;;3.60;99.90;;;;;;4951827;28;20077;-87
2022/01/05 07:14:18;;;;;;;19.55;3.55;;;3.30;99.90;;;;;;4962052;28;20125;-86
2022/01/05 07:16:45;;;;;;;15.35;2.60;;;3.60;99.90;;;;;;4952452;28;20043;-87
2022/01/05 07:19:12;;;;;;;30.35;3.47;;;3.60;99.90;;;;;;4952162;28;20563;-86
2022/01/05 07:21:39;;;;;;;22.33;2.53;;;3.60;99.90;;;;;;4967992;28;20592;-84
2022/01/05 07:24:11;;;;;;;12.50;2.60;;;3.70;99.90;;;;;;4975958;28;20090;-86
2022/01/05 07:26:39;;;;;;;11.85;3.45;;;3.60;99.90;;;;;;4951750;28;20475;-87
2022/01/05 07:29:06;;;;;;;13.52;2.85;;;3.50;99.90;;;;;;4951728;28;20086;-87
2022/01/05 07:31:38;;;;;;;23.35;2.72;;;3.60;99.90;;;;;;4969575;28;20054;-86
2022/01/05 07:34:04;;;;;;;20.85;3.15;;;3.50;99.90;;;;;;4951908;28;20654;-87
2022/01/05 07:36:31;;;;;;;18.48;3.40;;;3.60;99.90;;;;;;4952386;28;20104;-86
2022/01/05 07:38:59;;;;;;;27.88;3.33;;;3.70;99.90;;;;;;4951843;28;20133;-86
2022/01/05 07:41:26;;;;;;;23.60;2.97;;;3.60;99.90;;;;;;4969683;28;20146;-86
2022/01/05 07:43:53;;;;;;;21.88;3.85;;;3.70;99.90;;;;;;4977784;28;20174;-87
2022/01/05 07:46:19;;;;;;;16.08;3.35;;;3.70;99.90;;;;;;4951964;28;20149;-86
2022/01/05 07:48:46;;;;;;;13.50;3.17;;;3.70;99.90;;;;;;4969495;28;20066;-86
2022/01/05 07:51:13;;;;;;;13.98;3.20;;;3.70;99.90;;;;;;4952944;28;20559;-87
2022/01/05 07:53:40;;;;;;;15.02;2.78;;;3.80;99.90;;;;;;4979271;28;20133;-86
2022/01/05 07:56:08;;;;;;;15.00;2.88;;;3.90;99.90;;;;;;5016284;23;20150;-80
2022/01/05 07:58:36;;;;;;;16.83;2.97;;;4.00;99.90;;;;;;4979645;28;20752;-80
2022/01/05 08:01:04;;;;;;;20.88;3.30;;;4.00;99.90;;;;;;4990833;28;20696;-81
2022/01/05 08:03:34;;;;;;;27.63;4.05;;;4.00;99.90;;;;;;4980188;28;20499;-80
2022/01/05 08:06:18;;;;;;;19.23;3.45;;;4.00;99.90;;;;;;4973344;28;20058;-81
2022/01/05 08:08:46;;;;;;;17.63;3.10;;;4.10;99.90;;;;;;4971541;28;20116;-82
2022/01/05 08:11:15;;;;;;;16.80;2.90;;;4.10;99.90;;;;;;4974026;28;20094;-81
2022/01/05 08:13:42;;;;;;;19.60;2.65;;;4.20;99.90;;;;;;4997341;28;20130;-80
2022/01/05 08:16:09;;;;;;;16.85;3.15;;;4.10;99.90;;;;;;4996873;28;20100;-80
2022/01/05 08:18:36;;;;;;;24.98;4.18;;;4.20;99.90;;;;;;4995200;28;20411;-81
2022/01/05 08:21:03;;;;;;;17.00;2.70;;;4.20;99.90;;;;;;4995165;28;20054;-81
2022/01/05 08:23:30;;;;;;;16.98;3.03;;;4.20;99.90;;;;;;4997631;28;20085;-81
2022/01/05 08:25:57;;;;;;;14.55;2.30;;;4.20;99.90;;;;;;4998518;28;20050;-81
2022/01/05 08:28:24;;;;;;;15.93;2.95;;;4.20;99.90;;;;;;4986968;28;20511;-80
2022/01/05 08:30:51;;;;;;;21.05;2.80;;;4.20;99.90;;;;;;4978845;28;20054;-81
2022/01/05 08:33:18;;;;;;;13.80;3.13;;;4.30;99.90;;;;;;4958465;28;20047;-81
2022/01/05 08:35:46;;;;;;;23.23;2.97;;;4.30;99.90;;;;;;4991264;28;20042;-81
2022/01/05 08:38:13;;;;;;;14.52;2.78;;;4.40;99.90;;;;;;4977878;28;20081;-81
2022/01/05 08:40:40;;;;;;;13.82;2.47;;;4.40;99.90;;;;;;4981072;28;20468;-81
2022/01/05 08:43:09;;;;;;;10.35;3.92;;;4.40;99.90;;;;;;4972431;28;20454;-80
2022/01/05 08:45:37;;;;;;;12.32;2.88;;;4.50;99.90;;;;;;5001061;28;20680;-81
2022/01/05 08:48:05;;;;;;;16.88;2.63;;;4.40;99.90;;;;;;4994594;28;20170;-80
2022/01/05 08:50:34;;;;;;;16.88;2.97;;;4.50;99.90;;;;;;4977634;28;20108;-81
2022/01/05 08:53:01;;;;;;;13.95;3.00;;;4.50;99.90;;;;;;4978324;28;20046;-81
2022/01/05 08:55:32;;;;;;;22.55;3.05;;;4.60;99.90;;;;;;5002043;28;20053;-80
2022/01/05 08:58:00;;;;;;;11.80;3.45;;;4.60;99.90;;;;;;4977263;28;20105;-81
2022/01/05 09:00:27;;;;;;;15.80;3.25;;;4.60;99.90;;;;;;4996165;28;20046;-80
2022/01/05 09:02:54;;;;;;;16.58;2.97;;;4.70;99.90;;;;;;4993473;28;20088;-80
2022/01/05 09:05:22;;;;;;;21.23;3.10;;;4.70;99.90;;;;;;4994059;28;20054;-81
2022/01/05 09:07:49;;;;;;;23.33;3.42;;;4.70;99.90;;;;;;4994200;28;20130;-81
2022/01/05 09:10:16;;;;;;;15.98;3.03;;;4.70;99.90;;;;;;4976908;28;20058;-81
2022/01/05 09:12:43;;;;;;;13.80;2.38;;;4.70;99.90;;;;;;4999483;28;20049;-81
2022/01/05 09:15:10;;;;;;;17.45;3.90;;;4.80;99.90;;;;;;4983045;28;20080;-81
2022/01/05 09:17:38;;;;;;;17.77;3.00;;;4.80;99.90;;;;;;4994277;28;20097;-81
2022/01/05 09:20:07;;;;;;;14.05;3.35;;;4.80;99.90;;;;;;4976401;28;20141;-81
2022/01/05 09:22:38;;;;;;;20.60;2.53;;;4.90;99.90;;;;;;4991179;28;20081;-81
2022/01/05 09:25:10;;;;;;;21.92;2.97;;;5.00;99.90;;;;;;5006013;28;20041;-82
2022/01/05 09:27:40;;;;;;;14.32;4.57;;;5.10;99.90;;;;;;5013516;28;20140;-83
2022/01/05 09:30:09;;;;;;;8.95;2.53;;;5.10;99.90;;;;;;4996289;28;20132;-82
2022/01/05 09:32:36;;;;;;;28.17;3.03;;;5.10;99.90;;;;;;4984782;28;20085;-82
2022/01/05 09:35:05;;;;;;;12.30;2.83;;;5.00;99.90;;;;;;4986097;28;20491;-82
2022/01/05 09:37:35;;;;;;;20.23;3.42;;;5.10;99.90;;;;;;4994102;28;20171;-81
2022/01/05 09:42:49;;;;;;;18.40;2.75;;;5.10;99.90;;;;;;4985774;28;20487;-82
2022/01/05 09:45:18;;;;;;;22.70;3.00;;;5.20;99.90;;;;;;4984285;28;20468;-81
2022/01/05 09:48:12;;;;;;;28.40;3.20;;;5.20;99.90;;;;;;4994017;28;20085;-82
2022/01/05 09:50:54;;;;;;;27.23;3.25;;;5.30;99.90;;;;;;4976376;28;20069;-82
2022/01/05 09:53:23;;;;;;;12.10;2.63;;;5.50;99.90;;;;;;4998161;28;20818;-82
2022/01/05 09:55:51;;;;;;;15.60;2.83;;;5.50;99.90;;;;;;5008627;28;20100;-82
2022/01/05 09:58:22;;;;;;;21.20;2.72;;;5.50;99.90;;;;;;5003283;28;20082;-82
2022/01/05 10:00:50;;;;;;;22.67;3.35;;;5.60;99.90;;;;;;4993552;28;20082;-82
2022/01/05 10:03:17;;;;;;;17.35;2.72;;;5.60;99.90;;;;;;4975740;28;20046;-81
2022/01/05 10:05:44;;;;;;;22.85;3.53;;;5.60;99.90;;;;;;4993203;28;20082;-81
2022/01/05 10:08:12;;;;;;;20.00;3.05;;;5.60;99.90;;;;;;4993498;28;20046;-82
2022/01/05 10:10:41;;;;;;;15.82;2.40;;;5.60;99.90;;;;;;4973893;28;20144;-81
2022/01/05 10:13:08;;;;;;;13.75;2.35;;;5.60;99.90;;;;;;4980886;28;20052;-81
2022/01/05 10:15:35;;;;;;;21.70;2.83;;;5.50;99.90;;;;;;5003259;28;20153;-81
2022/01/05 10:18:16;;;;;;;10.75;2.55;;;5.50;99.90;;;;;;5005274;28;20050;-82
2022/01/05 10:21:02;;;;;;;18.25;3.55;;;5.50;99.90;;;;;;4989202;28;20154;-81
2022/01/05 10:23:33;;;;;;;19.08;2.22;;;5.40;99.90;;;;;;4997735;28;20117;-82
2022/01/05 10:26:25;;;;;;;15.52;2.55;;;5.40;99.90;;;;;;4996803;28;20054;-82
2022/01/05 10:28:54;;;;;;;14.77;2.97;;;5.40;99.90;;;;;;4984046;28;20566;-81
2022/01/05 10:31:39;;;;;;;12.50;2.13;;;5.40;99.90;;;;;;4983212;28;20081;-81
2022/01/05 10:34:19;;;;;;;14.50;2.38;;;5.40;99.90;;;;;;4993902;28;20053;-82
2022/01/05 10:36:50;;;;;;;13.30;2.22;;;5.40;99.90;;;;;;5012516;28;20086;-82
2022/01/05 10:39:20;;;;;;;9.00;2.90;;;5.50;99.90;;;;;;4997173;28;20062;-82
2022/01/05 10:41:47;;;;;;;12.70;2.60;;;5.50;99.90;;;;;;4992352;28;20508;-82
2022/01/05 10:44:22;;;;;;;13.25;2.28;;;5.50;99.90;;;;;;5001599;28;20050;-82
2022/01/05 10:46:52;;;;;;;15.30;2.30;;;5.40;99.90;;;;;;4992411;28;20078;-81
2022/01/05 10:49:37;;;;;;;8.75;3.08;;;5.40;99.90;;;;;;4991402;28;20048;-82
2022/01/05 10:52:29;;;;;;;12.20;2.42;;;5.30;99.90;;;;;;4962719;28;20065;-82
2022/01/05 10:55:17;;;;;;;18.05;2.25;;;5.30;99.90;;;;;;4993975;28;20773;-83
2022/01/05 10:58:12;;;;;;;23.33;2.97;;;5.30;99.90;;;;;;4988932;28;20129;-81
2022/01/05 11:00:39;;;;;;;14.55;2.63;;;5.30;99.90;;;;;;4991972;28;20105;-81
2022/01/05 11:03:27;;;;;;;12.40;2.45;;;5.30;99.90;;;;;;4992184;28;20145;-81
2022/01/05 11:06:03;;;;;;;21.55;2.45;;;5.30;99.90;;;;;;4992590;28;20460;-81
2022/01/05 11:08:32;;;;;;;16.65;2.72;;;5.30;99.90;;;;;;4974759;28;20077;-81
2022/01/05 11:10:59;;;;;;;14.68;3.00;;;5.30;99.90;;;;;;4989960;28;20483;-81
2022/01/05 11:13:28;;;;;;;17.33;2.20;;;5.30;99.90;;;;;;4996451;28;20046;-81
2022/01/05 11:15:58;;;;;;;14.57;2.13;;;5.30;99.90;;;;;;4997198;28;20129;-82
2022/01/05 11:18:30;;;;;;;16.85;2.95;;;5.40;99.90;;;;;;4991970;28;20459;-81
2022/01/05 11:21:03;;;;;;;17.35;2.85;;;5.40;99.90;;;;;;4991863;28;20077;-82
2022/01/05 11:23:31;;;;;;;13.95;2.38;;;5.40;99.90;;;;;;4994541;28;20082;-81
2022/01/05 11:26:01;;;;;;;13.38;2.95;;;5.30;99.90;;;;;;4978983;28;20137;-82
2022/01/05 11:28:30;;;;;;;9.85;2.63;;;5.30;99.90;;;;;;4991535;28;20109;-82
2022/01/05 11:30:58;;;;;;;10.93;2.42;;;5.40;99.90;;;;;;4990342;28;20077;-83
2022/01/05 11:33:24;;;;;;;16.83;3.72;;;5.50;99.90;;;;;;4989656;28;20046;-81
2022/01/05 11:35:52;;;;;;;13.27;4.45;;;5.60;99.90;;;;;;4972177;28;20129;-82
2022/01/05 11:38:18;;;;;;;15.38;3.40;;;5.80;99.90;;;;;;4986875;28;20081;-82
2022/01/05 11:40:57;;;;;;;10.95;2.53;;;5.90;99.90;;;;;;4988117;28;20136;-82
2022/01/05 11:43:34;;;;;;;12.93;3.20;;;5.90;99.90;;;;;;4966725;28;20138;-82
2022/01/05 11:46:19;;;;;;;13.60;2.58;;;5.90;99.90;;;;;;4988975;28;20050;-81
2022/01/05 11:49:14;;;;;;;12.80;2.08;;;5.90;99.90;;;;;;4980213;28;20074;-82
2022/01/05 11:51:40;;;;;;;24.83;5.00;;;6.00;99.90;;;;;;4972314;28;20082;-82
2022/01/05 11:54:30;;;;;;;12.50;2.45;;;6.00;99.90;;;;;;4994641;28;20797;-82
2022/01/05 11:57:07;;;;;;;16.52;3.00;;;6.00;99.90;;;;;;5010745;28;20853;-82
2022/01/05 11:59:37;;;;;;;7.47;3.17;;;6.00;99.90;;;;;;4990126;28;20077;-82
2022/01/05 12:02:14;;;;;;;11.73;2.97;;;5.90;99.90;;;;;;4991131;28;20050;-82
2022/01/05 12:04:56;;;;;;;15.45;2.55;;;5.90;99.90;;;;;;4974275;28;20057;-82
2022/01/05 12:07:35;;;;;;;14.43;2.90;;;5.90;99.90;;;;;;4980048;28;20639;-81
2022/01/05 12:10:12;;;;;;;11.82;2.45;;;5.90;99.90;;;;;;4984007;28;20065;-81
2022/01/05 12:12:55;;;;;;;11.07;2.45;;;5.80;99.90;;;;;;4972742;28;20132;-82
2022/01/05 12:15:56;;;;;;;7.93;2.65;;;5.80;99.90;;;;;;5005127;28;20365;-81
2022/01/05 12:18:30;;;;;;;13.23;2.75;;;5.90;99.90;;;;;;4983898;28;20046;-81
2022/01/05 12:20:58;;;;;;;7.93;2.97;;;5.80;99.90;;;;;;4973192;28;20141;-81
2022/01/05 12:23:27;;;;;;;14.70;2.70;;;5.90;99.90;;;;;;4998135;28;20074;-82
2022/01/05 12:26:03;;;;;;;12.02;2.85;;;5.90;99.90;;;;;;5005133;28;20100;-82
2022/01/05 12:28:36;;;;;;;5.70;2.03;;;5.90;99.90;;;;;;5001481;28;20078;-82
2022/01/05 12:31:09;;;;;;;9.90;2.60;;;5.80;99.90;;;;;;4990889;28;20547;-81
2022/01/05 12:33:49;;;;;;;13.85;2.60;;;5.90;99.90;;;;;;4991190;28;20101;-82
2022/01/05 12:36:37;;;;;;;9.32;2.70;;;5.80;99.90;;;;;;4979342;28;20069;-82
2022/01/05 12:39:08;;;;;;;17.45;3.75;;;5.80;99.90;;;;;;4990487;28;20058;-81
2022/01/05 12:41:45;;;;;;;14.98;3.85;;;5.80;99.90;;;;;;4991297;28;20053;-81
2022/01/05 12:44:11;;;;;;;8.75;3.42;;;5.80;99.90;;;;;;4999553;28;20092;-81
2022/01/05 12:46:52;;;;;;;19.05;4.43;;;5.80;99.90;;;;;;4991172;28;20821;-81
2022/01/05 12:49:26;;;;;;;14.73;3.28;;;5.80;99.90;;;;;;4991041;28;20054;-82
2022/01/05 12:52:00;;;;;;;16.60;3.65;;;5.80;99.90;;;;;;4988484;28;20104;-81
2022/01/05 12:54:29;;;;;;;15.15;3.22;;;5.80;99.90;;;;;;5005654;28;20401;-81
2022/01/05 12:57:01;;;;;;;9.50;2.97;;;5.80;99.90;;;;;;5012253;28;20144;-81
2022/01/05 12:59:33;;;;;;;21.52;3.05;;;5.80;99.90;;;;;;5013438;28;20081;-81
2022/01/05 13:02:03;;;;;;;15.45;2.90;;;5.80;99.90;;;;;;5014562;28;20053;-81
2022/01/05 13:04:31;;;;;;;11.23;3.08;;;5.80;99.90;;;;;;4994853;28;20053;-81
2022/01/05 13:06:59;;;;;;;17.23;3.50;;;5.80;99.90;;;;;;4994574;28;20558;-82
2022/01/05 13:09:27;;;;;;;16.52;3.42;;;5.90;99.90;;;;;;4977172;28;20047;-82
2022/01/05 13:11:59;;;;;;;9.90;2.70;;;5.90;99.90;;;;;;4994746;28;20136;-81
2022/01/05 13:14:35;;;;;;;15.68;3.05;;;6.00;99.90;;;;;;4984229;28;20100;-81
2022/01/05 13:17:19;;;;;;;10.38;2.92;;;6.00;99.90;;;;;;4980962;28;20038;-83
2022/01/05 13:20:08;;;;;;;5.53;2.50;;;6.00;99.90;;;;;;4975803;28;20050;-82